sensor_id;sensor_type;location;lat;lon;timestamp;P1;durP1;ratioP1;P2;durP2;ratioP2
31770;SDS011;18343;50.152;8.182;2023-06-04T00:01:00;9.75;;;3.42;;
31770;SDS011;18343;50.152;8.182;2023-06-04T00:03:46;6.47;;;2.17;;
31770;SDS011;18343;50.152;8.182;2023-06-04T00:06:30;9.07;;;2.42;;
31770;SDS011;18343;50.152;8.182;2023-06-04T00:09:18;7.05;;;1.98;;
31770;SDS011;18343;50.152;8.182;2023-06-04T00:12:03;4.18;;;1.85;;
31770;SDS011;18343;50.152;8.182;2023-06-04T00:14:48;4.93;;;2.47;;
31770;SDS011;18343;50.152;8.182;2023-06-04T00:17:33;2.88;;;2.03;;
31770;SDS011;18343;50.152;8.182;2023-06-04T00:20:19;7.40;;;2.45;;
31770;SDS011;18343;50.152;8.182;2023-06-04T00:23:04;4.38;;;2.13;;
31770;SDS011;18343;50.152;8.182;2023-06-04T00:25:49;6.65;;;2.60;;
31770;SDS011;18343;50.152;8.182;2023-06-04T00:28:33;8.82;;;2.85;;
31770;SDS011;18343;50.152;8.182;2023-06-04T00:31:18;7.57;;;2.45;;
31770;SDS011;18343;50.152;8.182;2023-06-04T00:34:03;6.57;;;2.40;;
31770;SDS011;18343;50.152;8.182;2023-06-04T00:36:49;11.65;;;2.40;;
31770;SDS011;18343;50.152;8.182;2023-06-04T00:39:33;4.97;;;2.13;;
31770;SDS011;18343;50.152;8.182;2023-06-04T00:42:18;4.43;;;2.08;;
31770;SDS011;18343;50.152;8.182;2023-06-04T00:45:03;7.18;;;2.40;;
31770;SDS011;18343;50.152;8.182;2023-06-04T00:47:48;6.10;;;2.50;;
31770;SDS011;18343;50.152;8.182;2023-06-04T00:50:33;6.35;;;2.17;;
31770;SDS011;18343;50.152;8.182;2023-06-04T00:53:19;4.18;;;2.08;;
31770;SDS011;18343;50.152;8.182;2023-06-04T00:56:06;7.97;;;2.63;;
31770;SDS011;18343;50.152;8.182;2023-06-04T00:58:51;3.47;;;2.30;;
31770;SDS011;18343;50.152;8.182;2023-06-04T01:01:37;8.02;;;2.47;;
31770;SDS011;18343;50.152;8.182;2023-06-04T01:04:27;3.30;;;2.20;;
31770;SDS011;18343;50.152;8.182;2023-06-04T01:07:16;4.15;;;2.70;;
31770;SDS011;18343;50.152;8.182;2023-06-04T01:10:03;4.70;;;2.30;;
31770;SDS011;18343;50.152;8.182;2023-06-04T01:12:49;6.75;;;2.90;;
31770;SDS011;18343;50.152;8.182;2023-06-04T01:15:33;3.95;;;2.20;;
31770;SDS011;18343;50.152;8.182;2023-06-04T01:18:23;3.80;;;2.38;;
31770;SDS011;18343;50.152;8.182;2023-06-04T01:21:11;3.70;;;2.40;;
31770;SDS011;18343;50.152;8.182;2023-06-04T01:23:57;6.43;;;2.50;;
31770;SDS011;18343;50.152;8.182;2023-06-04T01:26:46;3.25;;;2.47;;
31770;SDS011;18343;50.152;8.182;2023-06-04T01:29:32;7.18;;;3.72;;
31770;SDS011;18343;50.152;8.182;2023-06-04T01:32:16;4.63;;;2.65;;
31770;SDS011;18343;50.152;8.182;2023-06-04T01:35:02;5.95;;;2.47;;
31770;SDS011;18343;50.152;8.182;2023-06-04T01:37:53;10.15;;;3.60;;
31770;SDS011;18343;50.152;8.182;2023-06-04T01:40:41;6.45;;;3.15;;
31770;SDS011;18343;50.152;8.182;2023-06-04T01:43:27;6.35;;;2.20;;
31770;SDS011;18343;50.152;8.182;2023-06-04T01:46:12;4.65;;;2.10;;
31770;SDS011;18343;50.152;8.182;2023-06-04T01:48:56;2.65;;;1.95;;
31770;SDS011;18343;50.152;8.182;2023-06-04T01:51:44;2.97;;;2.03;;
31770;SDS011;18343;50.152;8.182;2023-06-04T01:54:28;4.82;;;2.75;;
31770;SDS011;18343;50.152;8.182;2023-06-04T01:57:13;4.45;;;2.42;;
31770;SDS011;18343;50.152;8.182;2023-06-04T01:59:59;5.65;;;2.17;;
31770;SDS011;18343;50.152;8.182;2023-06-04T02:02:44;3.83;;;2.08;;
31770;SDS011;18343;50.152;8.182;2023-06-04T02:05:29;4.97;;;2.42;;
31770;SDS011;18343;50.152;8.182;2023-06-04T02:08:14;6.72;;;2.78;;
31770;SDS011;18343;50.152;8.182;2023-06-04T02:10:59;6.55;;;2.28;;
31770;SDS011;18343;50.152;8.182;2023-06-04T02:13:44;2.72;;;2.03;;
31770;SDS011;18343;50.152;8.182;2023-06-04T02:16:30;3.28;;;2.05;;
31770;SDS011;18343;50.152;8.182;2023-06-04T02:19:15;7.32;;;2.08;;
31770;SDS011;18343;50.152;8.182;2023-06-04T02:21:59;4.22;;;2.17;;
31770;SDS011;18343;50.152;8.182;2023-06-04T02:24:44;9.90;;;2.15;;
31770;SDS011;18343;50.152;8.182;2023-06-04T02:27:29;3.58;;;2.15;;
31770;SDS011;18343;50.152;8.182;2023-06-04T02:30:13;3.22;;;2.05;;
31770;SDS011;18343;50.152;8.182;2023-06-04T02:32:59;8.43;;;2.03;;
31770;SDS011;18343;50.152;8.182;2023-06-04T02:35:44;3.17;;;2.00;;
31770;SDS011;18343;50.152;8.182;2023-06-04T02:38:28;4.82;;;1.90;;
31770;SDS011;18343;50.152;8.182;2023-06-04T02:41:13;4.28;;;1.88;;
31770;SDS011;18343;50.152;8.182;2023-06-04T02:43:57;5.60;;;1.83;;
31770;SDS011;18343;50.152;8.182;2023-06-04T02:46:42;5.32;;;2.60;;
31770;SDS011;18343;50.152;8.182;2023-06-04T02:49:30;6.97;;;2.40;;
31770;SDS011;18343;50.152;8.182;2023-06-04T02:52:15;3.83;;;1.92;;
31770;SDS011;18343;50.152;8.182;2023-06-04T02:55:00;9.18;;;4.43;;
31770;SDS011;18343;50.152;8.182;2023-06-04T02:57:45;6.03;;;2.80;;
31770;SDS011;18343;50.152;8.182;2023-06-04T03:00:29;3.15;;;1.90;;
31770;SDS011;18343;50.152;8.182;2023-06-04T03:03:14;2.92;;;2.13;;
31770;SDS011;18343;50.152;8.182;2023-06-04T03:06:00;6.03;;;2.30;;
31770;SDS011;18343;50.152;8.182;2023-06-04T03:08:45;4.57;;;2.10;;
31770;SDS011;18343;50.152;8.182;2023-06-04T03:11:31;6.55;;;2.55;;
31770;SDS011;18343;50.152;8.182;2023-06-04T03:14:15;5.13;;;2.38;;
31770;SDS011;18343;50.152;8.182;2023-06-04T03:17:02;3.97;;;2.42;;
31770;SDS011;18343;50.152;8.182;2023-06-04T03:19:48;3.00;;;2.10;;
31770;SDS011;18343;50.152;8.182;2023-06-04T03:22:33;5.82;;;2.03;;
31770;SDS011;18343;50.152;8.182;2023-06-04T03:25:18;3.53;;;2.50;;
31770;SDS011;18343;50.152;8.182;2023-06-04T03:28:03;3.45;;;2.30;;
31770;SDS011;18343;50.152;8.182;2023-06-04T03:30:48;6.82;;;2.30;;
31770;SDS011;18343;50.152;8.182;2023-06-04T03:33:32;9.25;;;2.83;;
31770;SDS011;18343;50.152;8.182;2023-06-04T03:36:17;3.95;;;2.30;;
31770;SDS011;18343;50.152;8.182;2023-06-04T03:39:03;5.47;;;2.28;;
31770;SDS011;18343;50.152;8.182;2023-06-04T03:41:48;3.85;;;1.98;;
31770;SDS011;18343;50.152;8.182;2023-06-04T03:44:33;2.50;;;2.10;;
31770;SDS011;18343;50.152;8.182;2023-06-04T03:47:18;6.28;;;2.03;;
31770;SDS011;18343;50.152;8.182;2023-06-04T03:50:02;2.88;;;1.80;;
31770;SDS011;18343;50.152;8.182;2023-06-04T03:52:48;6.25;;;2.60;;
31770;SDS011;18343;50.152;8.182;2023-06-04T03:55:39;3.92;;;2.60;;
31770;SDS011;18343;50.152;8.182;2023-06-04T03:58:24;7.40;;;2.08;;
31770;SDS011;18343;50.152;8.182;2023-06-04T04:01:09;9.98;;;2.90;;
31770;SDS011;18343;50.152;8.182;2023-06-04T04:03:53;3.53;;;1.88;;
31770;SDS011;18343;50.152;8.182;2023-06-04T04:06:38;2.25;;;1.95;;
31770;SDS011;18343;50.152;8.182;2023-06-04T04:09:22;6.18;;;2.15;;
31770;SDS011;18343;50.152;8.182;2023-06-04T04:12:08;4.05;;;2.05;;
31770;SDS011;18343;50.152;8.182;2023-06-04T04:14:53;4.85;;;2.40;;
31770;SDS011;18343;50.152;8.182;2023-06-04T04:17:37;7.13;;;2.22;;
31770;SDS011;18343;50.152;8.182;2023-06-04T04:20:22;4.78;;;2.25;;
31770;SDS011;18343;50.152;8.182;2023-06-04T04:23:07;4.38;;;2.50;;
31770;SDS011;18343;50.152;8.182;2023-06-04T04:25:51;2.97;;;1.92;;
31770;SDS011;18343;50.152;8.182;2023-06-04T04:28:38;3.30;;;2.25;;
31770;SDS011;18343;50.152;8.182;2023-06-04T04:31:22;3.67;;;2.38;;
31770;SDS011;18343;50.152;8.182;2023-06-04T04:34:07;6.65;;;2.65;;
31770;SDS011;18343;50.152;8.182;2023-06-04T04:36:52;3.45;;;2.10;;
31770;SDS011;18343;50.152;8.182;2023-06-04T04:39:37;5.13;;;2.15;;
31770;SDS011;18343;50.152;8.182;2023-06-04T04:42:21;10.07;;;2.75;;
31770;SDS011;18343;50.152;8.182;2023-06-04T04:45:08;5.03;;;2.67;;
31770;SDS011;18343;50.152;8.182;2023-06-04T04:47:56;5.45;;;2.28;;
31770;SDS011;18343;50.152;8.182;2023-06-04T04:50:41;2.78;;;2.22;;
31770;SDS011;18343;50.152;8.182;2023-06-04T04:53:26;3.58;;;2.50;;
31770;SDS011;18343;50.152;8.182;2023-06-04T04:56:10;4.55;;;2.70;;
31770;SDS011;18343;50.152;8.182;2023-06-04T04:58:57;6.32;;;2.60;;
31770;SDS011;18343;50.152;8.182;2023-06-04T05:01:43;4.30;;;2.70;;
31770;SDS011;18343;50.152;8.182;2023-06-04T05:04:28;3.90;;;2.70;;
31770;SDS011;18343;50.152;8.182;2023-06-04T05:07:12;4.57;;;2.90;;
31770;SDS011;18343;50.152;8.182;2023-06-04T05:09:57;6.35;;;3.22;;
31770;SDS011;18343;50.152;8.182;2023-06-04T05:12:50;5.90;;;2.67;;
31770;SDS011;18343;50.152;8.182;2023-06-04T05:15:35;8.20;;;3.28;;
31770;SDS011;18343;50.152;8.182;2023-06-04T05:18:21;6.13;;;3.50;;
31770;SDS011;18343;50.152;8.182;2023-06-04T05:21:06;8.95;;;3.13;;
31770;SDS011;18343;50.152;8.182;2023-06-04T05:23:51;7.35;;;2.10;;
31770;SDS011;18343;50.152;8.182;2023-06-04T05:26:39;11.40;;;3.10;;
31770;SDS011;18343;50.152;8.182;2023-06-04T05:29:24;4.47;;;2.60;;
31770;SDS011;18343;50.152;8.182;2023-06-04T05:32:08;6.15;;;3.00;;
31770;SDS011;18343;50.152;8.182;2023-06-04T05:34:55;4.65;;;2.80;;
31770;SDS011;18343;50.152;8.182;2023-06-04T05:37:40;3.72;;;2.30;;
31770;SDS011;18343;50.152;8.182;2023-06-04T05:40:25;5.03;;;2.55;;
31770;SDS011;18343;50.152;8.182;2023-06-04T05:43:09;6.13;;;2.60;;
31770;SDS011;18343;50.152;8.182;2023-06-04T05:45:54;8.30;;;2.63;;
31770;SDS011;18343;50.152;8.182;2023-06-04T05:48:39;7.78;;;2.65;;
31770;SDS011;18343;50.152;8.182;2023-06-04T05:51:24;4.60;;;2.53;;
31770;SDS011;18343;50.152;8.182;2023-06-04T05:54:09;5.43;;;2.67;;
31770;SDS011;18343;50.152;8.182;2023-06-04T05:56:54;8.25;;;2.67;;
31770;SDS011;18343;50.152;8.182;2023-06-04T05:59:38;4.70;;;2.30;;
31770;SDS011;18343;50.152;8.182;2023-06-04T06:02:25;7.45;;;2.38;;
31770;SDS011;18343;50.152;8.182;2023-06-04T06:05:14;6.07;;;2.15;;
31770;SDS011;18343;50.152;8.182;2023-06-04T06:08:00;4.20;;;1.98;;
31770;SDS011;18343;50.152;8.182;2023-06-04T06:10:45;5.20;;;2.47;;
31770;SDS011;18343;50.152;8.182;2023-06-04T06:13:29;7.85;;;2.55;;
31770;SDS011;18343;50.152;8.182;2023-06-04T06:16:14;6.70;;;2.38;;
31770;SDS011;18343;50.152;8.182;2023-06-04T06:18:59;2.88;;;2.28;;
31770;SDS011;18343;50.152;8.182;2023-06-04T06:21:44;7.32;;;2.35;;
31770;SDS011;18343;50.152;8.182;2023-06-04T06:24:30;7.93;;;2.22;;
31770;SDS011;18343;50.152;8.182;2023-06-04T06:27:15;10.70;;;2.60;;
31770;SDS011;18343;50.152;8.182;2023-06-04T06:30:00;4.80;;;2.00;;
31770;SDS011;18343;50.152;8.182;2023-06-04T06:32:44;4.70;;;2.50;;
31770;SDS011;18343;50.152;8.182;2023-06-04T06:35:29;3.90;;;2.15;;
31770;SDS011;18343;50.152;8.182;2023-06-04T06:38:13;4.70;;;2.10;;
31770;SDS011;18343;50.152;8.182;2023-06-04T06:40:59;4.03;;;2.05;;
31770;SDS011;18343;50.152;8.182;2023-06-04T06:43:47;4.18;;;2.00;;
31770;SDS011;18343;50.152;8.182;2023-06-04T06:46:32;4.15;;;2.20;;
31770;SDS011;18343;50.152;8.182;2023-06-04T06:49:17;10.43;;;2.30;;
31770;SDS011;18343;50.152;8.182;2023-06-04T06:52:02;3.55;;;2.40;;
31770;SDS011;18343;50.152;8.182;2023-06-04T06:54:47;8.25;;;2.08;;
31770;SDS011;18343;50.152;8.182;2023-06-04T06:57:33;7.07;;;1.90;;
31770;SDS011;18343;50.152;8.182;2023-06-04T07:00:18;3.33;;;2.03;;
31770;SDS011;18343;50.152;8.182;2023-06-04T07:03:03;4.93;;;2.17;;
31770;SDS011;18343;50.152;8.182;2023-06-04T07:05:48;3.97;;;1.70;;
31770;SDS011;18343;50.152;8.182;2023-06-04T07:08:32;7.28;;;2.17;;
31770;SDS011;18343;50.152;8.182;2023-06-04T07:11:20;5.50;;;1.95;;
31770;SDS011;18343;50.152;8.182;2023-06-04T07:14:06;4.82;;;2.03;;
31770;SDS011;18343;50.152;8.182;2023-06-04T07:16:52;1.95;;;1.50;;
31770;SDS011;18343;50.152;8.182;2023-06-04T07:19:44;5.53;;;2.20;;
31770;SDS011;18343;50.152;8.182;2023-06-04T07:22:29;5.70;;;1.80;;
31770;SDS011;18343;50.152;8.182;2023-06-04T07:25:13;7.78;;;1.88;;
31770;SDS011;18343;50.152;8.182;2023-06-04T07:28:07;10.82;;;1.77;;
31770;SDS011;18343;50.152;8.182;2023-06-04T07:30:53;4.95;;;2.05;;
31770;SDS011;18343;50.152;8.182;2023-06-04T07:33:38;3.33;;;1.60;;
31770;SDS011;18343;50.152;8.182;2023-06-04T07:36:23;5.63;;;1.83;;
31770;SDS011;18343;50.152;8.182;2023-06-04T07:39:07;6.85;;;1.50;;
31770;SDS011;18343;50.152;8.182;2023-06-04T07:42:25;4.78;;;1.58;;
31770;SDS011;18343;50.152;8.182;2023-06-04T07:45:09;2.90;;;1.58;;
31770;SDS011;18343;50.152;8.182;2023-06-04T07:47:56;5.72;;;2.25;;
31770;SDS011;18343;50.152;8.182;2023-06-04T07:50:40;4.85;;;1.52;;
31770;SDS011;18343;50.152;8.182;2023-06-04T07:53:25;8.32;;;1.77;;
31770;SDS011;18343;50.152;8.182;2023-06-04T07:56:10;3.83;;;1.60;;
31770;SDS011;18343;50.152;8.182;2023-06-04T07:58:54;5.90;;;1.42;;
31770;SDS011;18343;50.152;8.182;2023-06-04T08:01:42;6.00;;;1.75;;
31770;SDS011;18343;50.152;8.182;2023-06-04T08:04:28;4.10;;;1.40;;
31770;SDS011;18343;50.152;8.182;2023-06-04T08:07:12;5.63;;;1.70;;
31770;SDS011;18343;50.152;8.182;2023-06-04T08:09:57;4.50;;;1.30;;
31770;SDS011;18343;50.152;8.182;2023-06-04T08:12:41;7.03;;;2.00;;
31770;SDS011;18343;50.152;8.182;2023-06-04T08:15:26;2.40;;;1.40;;
31770;SDS011;18343;50.152;8.182;2023-06-04T08:18:10;5.25;;;1.67;;
31770;SDS011;18343;50.152;8.182;2023-06-04T08:20:56;3.95;;;1.25;;
31770;SDS011;18343;50.152;8.182;2023-06-04T08:23:41;2.22;;;1.20;;
31770;SDS011;18343;50.152;8.182;2023-06-04T08:26:25;3.03;;;1.48;;
31770;SDS011;18343;50.152;8.182;2023-06-04T08:29:10;2.80;;;1.42;;
31770;SDS011;18343;50.152;8.182;2023-06-04T08:31:55;5.13;;;1.55;;
31770;SDS011;18343;50.152;8.182;2023-06-04T08:34:39;8.98;;;1.80;;
31770;SDS011;18343;50.152;8.182;2023-06-04T08:37:29;5.22;;;1.90;;
31770;SDS011;18343;50.152;8.182;2023-06-04T08:40:13;3.15;;;1.65;;
31770;SDS011;18343;50.152;8.182;2023-06-04T08:42:58;3.25;;;1.77;;
31770;SDS011;18343;50.152;8.182;2023-06-04T08:45:43;5.95;;;2.03;;
31770;SDS011;18343;50.152;8.182;2023-06-04T08:48:33;4.38;;;1.90;;
31770;SDS011;18343;50.152;8.182;2023-06-04T08:51:18;3.45;;;1.90;;
31770;SDS011;18343;50.152;8.182;2023-06-04T08:54:05;5.53;;;1.60;;
31770;SDS011;18343;50.152;8.182;2023-06-04T08:56:51;7.72;;;1.30;;
31770;SDS011;18343;50.152;8.182;2023-06-04T08:59:35;4.90;;;2.13;;
31770;SDS011;18343;50.152;8.182;2023-06-04T09:02:27;4.68;;;1.50;;
31770;SDS011;18343;50.152;8.182;2023-06-04T09:05:17;3.35;;;1.42;;
31770;SDS011;18343;50.152;8.182;2023-06-04T09:08:04;4.15;;;1.45;;
31770;SDS011;18343;50.152;8.182;2023-06-04T09:10:56;3.20;;;1.88;;
31770;SDS011;18343;50.152;8.182;2023-06-04T09:13:40;2.30;;;1.27;;
31770;SDS011;18343;50.152;8.182;2023-06-04T09:16:30;3.58;;;1.60;;
31770;SDS011;18343;50.152;8.182;2023-06-04T09:19:15;3.22;;;1.38;;
31770;SDS011;18343;50.152;8.182;2023-06-04T09:22:01;2.47;;;1.48;;
31770;SDS011;18343;50.152;8.182;2023-06-04T09:24:46;6.47;;;2.13;;
31770;SDS011;18343;50.152;8.182;2023-06-04T09:27:38;2.45;;;1.25;;
31770;SDS011;18343;50.152;8.182;2023-06-04T09:30:24;2.20;;;1.30;;
31770;SDS011;18343;50.152;8.182;2023-06-04T09:33:08;3.15;;;1.48;;
31770;SDS011;18343;50.152;8.182;2023-06-04T09:35:53;4.70;;;1.40;;
31770;SDS011;18343;50.152;8.182;2023-06-04T09:38:42;5.80;;;1.35;;
31770;SDS011;18343;50.152;8.182;2023-06-04T09:41:27;4.25;;;1.75;;
31770;SDS011;18343;50.152;8.182;2023-06-04T09:44:15;3.13;;;1.42;;
31770;SDS011;18343;50.152;8.182;2023-06-04T09:46:59;4.00;;;1.60;;
31770;SDS011;18343;50.152;8.182;2023-06-04T09:49:46;3.13;;;1.50;;
31770;SDS011;18343;50.152;8.182;2023-06-04T09:52:35;2.80;;;1.40;;
31770;SDS011;18343;50.152;8.182;2023-06-04T09:55:22;5.38;;;1.80;;
31770;SDS011;18343;50.152;8.182;2023-06-04T09:58:10;2.70;;;1.55;;
31770;SDS011;18343;50.152;8.182;2023-06-04T10:00:57;4.70;;;1.75;;
31770;SDS011;18343;50.152;8.182;2023-06-04T10:03:44;2.85;;;1.55;;
31770;SDS011;18343;50.152;8.182;2023-06-04T10:06:34;3.63;;;1.35;;
31770;SDS011;18343;50.152;8.182;2023-06-04T10:09:20;8.20;;;1.83;;
31770;SDS011;18343;50.152;8.182;2023-06-04T10:12:09;6.88;;;1.80;;
31770;SDS011;18343;50.152;8.182;2023-06-04T10:15:02;5.10;;;1.60;;
31770;SDS011;18343;50.152;8.182;2023-06-04T10:17:54;3.28;;;1.20;;
31770;SDS011;18343;50.152;8.182;2023-06-04T10:20:40;2.85;;;1.45;;
31770;SDS011;18343;50.152;8.182;2023-06-04T10:23:28;2.28;;;1.67;;
31770;SDS011;18343;50.152;8.182;2023-06-04T10:26:13;3.03;;;1.55;;
31770;SDS011;18343;50.152;8.182;2023-06-04T10:28:58;6.35;;;1.75;;
31770;SDS011;18343;50.152;8.182;2023-06-04T10:31:44;4.93;;;1.48;;
31770;SDS011;18343;50.152;8.182;2023-06-04T10:34:31;3.28;;;1.25;;
31770;SDS011;18343;50.152;8.182;2023-06-04T10:37:20;2.85;;;1.40;;
31770;SDS011;18343;50.152;8.182;2023-06-04T10:40:06;4.43;;;1.48;;
31770;SDS011;18343;50.152;8.182;2023-06-04T10:42:51;6.75;;;1.52;;
31770;SDS011;18343;50.152;8.182;2023-06-04T10:45:37;6.45;;;1.67;;
31770;SDS011;18343;50.152;8.182;2023-06-04T10:48:23;2.97;;;1.60;;
31770;SDS011;18343;50.152;8.182;2023-06-04T10:51:11;5.97;;;2.33;;
31770;SDS011;18343;50.152;8.182;2023-06-04T10:54:01;6.07;;;1.80;;
31770;SDS011;18343;50.152;8.182;2023-06-04T10:56:47;3.72;;;1.80;;
31770;SDS011;18343;50.152;8.182;2023-06-04T10:59:32;2.53;;;1.55;;
31770;SDS011;18343;50.152;8.182;2023-06-04T11:02:17;2.20;;;1.42;;
31770;SDS011;18343;50.152;8.182;2023-06-04T11:05:02;7.25;;;1.30;;
31770;SDS011;18343;50.152;8.182;2023-06-04T11:07:51;3.95;;;1.35;;
31770;SDS011;18343;50.152;8.182;2023-06-04T11:10:37;2.88;;;1.40;;
31770;SDS011;18343;50.152;8.182;2023-06-04T11:13:23;3.45;;;1.90;;
31770;SDS011;18343;50.152;8.182;2023-06-04T11:16:14;2.75;;;1.52;;
31770;SDS011;18343;50.152;8.182;2023-06-04T11:18:59;3.47;;;1.50;;
31770;SDS011;18343;50.152;8.182;2023-06-04T11:21:44;6.40;;;1.88;;
31770;SDS011;18343;50.152;8.182;2023-06-04T11:24:30;7.72;;;1.73;;
31770;SDS011;18343;50.152;8.182;2023-06-04T11:27:16;2.33;;;1.90;;
31770;SDS011;18343;50.152;8.182;2023-06-04T11:30:01;6.55;;;1.67;;
31770;SDS011;18343;50.152;8.182;2023-06-04T11:32:50;6.38;;;2.08;;
31770;SDS011;18343;50.152;8.182;2023-06-04T11:35:43;4.05;;;1.80;;
31770;SDS011;18343;50.152;8.182;2023-06-04T11:38:28;3.75;;;1.73;;
31770;SDS011;18343;50.152;8.182;2023-06-04T11:41:14;8.55;;;1.90;;
31770;SDS011;18343;50.152;8.182;2023-06-04T11:44:00;2.88;;;1.60;;
31770;SDS011;18343;50.152;8.182;2023-06-04T11:46:49;3.83;;;1.52;;
31770;SDS011;18343;50.152;8.182;2023-06-04T11:49:34;7.28;;;4.40;;
31770;SDS011;18343;50.152;8.182;2023-06-04T11:52:20;4.63;;;2.15;;
31770;SDS011;18343;50.152;8.182;2023-06-04T11:55:05;4.47;;;1.27;;
31770;SDS011;18343;50.152;8.182;2023-06-04T11:57:54;5.35;;;2.10;;
31770;SDS011;18343;50.152;8.182;2023-06-04T12:00:40;5.22;;;2.00;;
31770;SDS011;18343;50.152;8.182;2023-06-04T12:03:35;4.78;;;2.30;;
31770;SDS011;18343;50.152;8.182;2023-06-04T12:06:21;5.57;;;1.90;;
31770;SDS011;18343;50.152;8.182;2023-06-04T12:09:08;3.08;;;1.70;;
31770;SDS011;18343;50.152;8.182;2023-06-04T12:12:27;6.88;;;1.45;;
31770;SDS011;18343;50.152;8.182;2023-06-04T12:15:18;3.47;;;1.90;;
31770;SDS011;18343;50.152;8.182;2023-06-04T12:18:02;4.88;;;1.50;;
31770;SDS011;18343;50.152;8.182;2023-06-04T12:20:50;3.28;;;1.80;;
31770;SDS011;18343;50.152;8.182;2023-06-04T12:23:35;5.10;;;1.63;;
31770;SDS011;18343;50.152;8.182;2023-06-04T12:26:20;7.13;;;1.70;;
31770;SDS011;18343;50.152;8.182;2023-06-04T12:29:09;5.47;;;1.40;;
31770;SDS011;18343;50.152;8.182;2023-06-04T12:32:03;3.15;;;1.60;;
31770;SDS011;18343;50.152;8.182;2023-06-04T12:34:49;5.45;;;1.58;;
31770;SDS011;18343;50.152;8.182;2023-06-04T12:37:33;3.75;;;1.83;;
31770;SDS011;18343;50.152;8.182;2023-06-04T12:40:20;2.42;;;1.30;;
31770;SDS011;18343;50.152;8.182;2023-06-04T12:43:05;4.70;;;1.83;;
31770;SDS011;18343;50.152;8.182;2023-06-04T12:45:49;2.65;;;1.45;;
31770;SDS011;18343;50.152;8.182;2023-06-04T12:48:35;3.10;;;1.50;;
31770;SDS011;18343;50.152;8.182;2023-06-04T12:51:20;2.83;;;1.52;;
31770;SDS011;18343;50.152;8.182;2023-06-04T12:54:05;4.57;;;1.52;;
31770;SDS011;18343;50.152;8.182;2023-06-04T12:56:50;2.38;;;1.30;;
31770;SDS011;18343;50.152;8.182;2023-06-04T12:59:35;9.05;;;1.50;;
31770;SDS011;18343;50.152;8.182;2023-06-04T13:02:20;6.35;;;1.88;;
31770;SDS011;18343;50.152;8.182;2023-06-04T13:05:07;2.90;;;1.52;;
31770;SDS011;18343;50.152;8.182;2023-06-04T13:07:52;4.20;;;1.15;;
31770;SDS011;18343;50.152;8.182;2023-06-04T13:10:36;3.67;;;1.40;;
31770;SDS011;18343;50.152;8.182;2023-06-04T13:13:24;3.65;;;1.48;;
31770;SDS011;18343;50.152;8.182;2023-06-04T13:16:09;4.68;;;1.55;;
31770;SDS011;18343;50.152;8.182;2023-06-04T13:18:53;3.17;;;1.80;;
31770;SDS011;18343;50.152;8.182;2023-06-04T13:21:42;3.22;;;1.25;;
31770;SDS011;18343;50.152;8.182;2023-06-04T13:24:26;2.72;;;1.58;;
31770;SDS011;18343;50.152;8.182;2023-06-04T13:27:11;4.82;;;1.50;;
31770;SDS011;18343;50.152;8.182;2023-06-04T13:29:56;2.35;;;1.70;;
31770;SDS011;18343;50.152;8.182;2023-06-04T13:32:40;2.22;;;1.25;;
31770;SDS011;18343;50.152;8.182;2023-06-04T13:35:25;2.85;;;1.23;;
31770;SDS011;18343;50.152;8.182;2023-06-04T13:38:11;3.95;;;1.70;;
31770;SDS011;18343;50.152;8.182;2023-06-04T13:40:55;4.15;;;1.40;;
31770;SDS011;18343;50.152;8.182;2023-06-04T13:43:40;4.78;;;1.52;;
31770;SDS011;18343;50.152;8.182;2023-06-04T13:46:24;3.95;;;1.50;;
31770;SDS011;18343;50.152;8.182;2023-06-04T13:49:09;3.15;;;1.65;;
31770;SDS011;18343;50.152;8.182;2023-06-04T13:51:53;2.35;;;1.40;;
31770;SDS011;18343;50.152;8.182;2023-06-04T13:54:42;1.83;;;1.40;;
31770;SDS011;18343;50.152;8.182;2023-06-04T13:57:27;2.45;;;1.58;;
31770;SDS011;18343;50.152;8.182;2023-06-04T14:00:12;2.85;;;1.58;;
31770;SDS011;18343;50.152;8.182;2023-06-04T14:02:58;3.22;;;1.70;;
31770;SDS011;18343;50.152;8.182;2023-06-04T14:05:46;3.95;;;1.55;;
31770;SDS011;18343;50.152;8.182;2023-06-04T14:08:30;3.97;;;1.40;;
31770;SDS011;18343;50.152;8.182;2023-06-04T14:11:16;1.92;;;1.30;;
31770;SDS011;18343;50.152;8.182;2023-06-04T14:14:01;4.88;;;1.38;;
31770;SDS011;18343;50.152;8.182;2023-06-04T14:16:45;7.53;;;1.60;;
31770;SDS011;18343;50.152;8.182;2023-06-04T14:19:31;3.17;;;1.60;;
31770;SDS011;18343;50.152;8.182;2023-06-04T14:22:16;2.40;;;2.00;;
31770;SDS011;18343;50.152;8.182;2023-06-04T14:25:03;6.63;;;3.33;;
31770;SDS011;18343;50.152;8.182;2023-06-04T14:27:50;4.35;;;2.92;;
31770;SDS011;18343;50.152;8.182;2023-06-04T14:30:34;2.47;;;1.58;;
31770;SDS011;18343;50.152;8.182;2023-06-04T14:33:19;2.58;;;1.67;;
31770;SDS011;18343;50.152;8.182;2023-06-04T14:36:04;4.40;;;1.52;;
31770;SDS011;18343;50.152;8.182;2023-06-04T14:38:51;5.57;;;1.73;;
31770;SDS011;18343;50.152;8.182;2023-06-04T14:41:35;3.08;;;1.70;;
31770;SDS011;18343;50.152;8.182;2023-06-04T14:44:21;2.88;;;1.30;;
31770;SDS011;18343;50.152;8.182;2023-06-04T14:47:06;5.15;;;1.73;;
31770;SDS011;18343;50.152;8.182;2023-06-04T14:49:50;2.05;;;1.50;;
31770;SDS011;18343;50.152;8.182;2023-06-04T14:52:35;5.45;;;1.75;;
31770;SDS011;18343;50.152;8.182;2023-06-04T14:55:19;5.10;;;1.60;;
31770;SDS011;18343;50.152;8.182;2023-06-04T14:58:04;1.85;;;1.50;;
31770;SDS011;18343;50.152;8.182;2023-06-04T15:00:50;2.78;;;1.63;;
31770;SDS011;18343;50.152;8.182;2023-06-04T15:03:35;2.22;;;1.60;;
31770;SDS011;18343;50.152;8.182;2023-06-04T15:06:21;2.30;;;1.60;;
31770;SDS011;18343;50.152;8.182;2023-06-04T15:09:06;2.65;;;1.90;;
31770;SDS011;18343;50.152;8.182;2023-06-04T15:11:50;2.00;;;1.60;;
31770;SDS011;18343;50.152;8.182;2023-06-04T15:14:35;8.95;;;1.77;;
31770;SDS011;18343;50.152;8.182;2023-06-04T15:17:21;2.85;;;2.00;;
31770;SDS011;18343;50.152;8.182;2023-06-04T15:20:06;4.90;;;1.95;;
31770;SDS011;18343;50.152;8.182;2023-06-04T15:22:52;3.28;;;1.60;;
31770;SDS011;18343;50.152;8.182;2023-06-04T15:25:37;4.55;;;1.95;;
31770;SDS011;18343;50.152;8.182;2023-06-04T15:28:21;12.07;;;2.25;;
31770;SDS011;18343;50.152;8.182;2023-06-04T15:31:06;5.25;;;2.45;;
31770;SDS011;18343;50.152;8.182;2023-06-04T15:33:52;3.22;;;2.00;;
31770;SDS011;18343;50.152;8.182;2023-06-04T15:36:37;7.13;;;2.30;;
31770;SDS011;18343;50.152;8.182;2023-06-04T15:39:22;4.68;;;1.73;;
31770;SDS011;18343;50.152;8.182;2023-06-04T15:42:06;3.55;;;2.05;;
31770;SDS011;18343;50.152;8.182;2023-06-04T15:44:55;3.25;;;2.40;;
31770;SDS011;18343;50.152;8.182;2023-06-04T15:47:40;3.25;;;2.20;;
31770;SDS011;18343;50.152;8.182;2023-06-04T15:50:26;3.08;;;2.25;;
31770;SDS011;18343;50.152;8.182;2023-06-04T15:53:10;4.72;;;2.33;;
31770;SDS011;18343;50.152;8.182;2023-06-04T15:55:55;2.00;;;1.80;;
31770;SDS011;18343;50.152;8.182;2023-06-04T15:58:40;4.18;;;2.30;;
31770;SDS011;18343;50.152;8.182;2023-06-04T16:01:25;7.25;;;2.35;;
31770;SDS011;18343;50.152;8.182;2023-06-04T16:04:12;3.15;;;2.08;;
31770;SDS011;18343;50.152;8.182;2023-06-04T16:06:58;7.95;;;3.47;;
31770;SDS011;18343;50.152;8.182;2023-06-04T16:09:43;3.75;;;2.65;;
31770;SDS011;18343;50.152;8.182;2023-06-04T16:12:28;4.88;;;2.95;;
31770;SDS011;18343;50.152;8.182;2023-06-04T16:15:12;4.90;;;2.60;;
31770;SDS011;18343;50.152;8.182;2023-06-04T16:17:57;2.90;;;2.60;;
31770;SDS011;18343;50.152;8.182;2023-06-04T16:20:42;5.97;;;2.30;;
31770;SDS011;18343;50.152;8.182;2023-06-04T16:23:29;3.38;;;2.50;;
31770;SDS011;18343;50.152;8.182;2023-06-04T16:26:13;8.35;;;2.75;;
31770;SDS011;18343;50.152;8.182;2023-06-04T16:28:58;4.68;;;2.92;;
31770;SDS011;18343;50.152;8.182;2023-06-04T16:31:43;2.88;;;2.58;;
31770;SDS011;18343;50.152;8.182;2023-06-04T16:34:27;7.60;;;2.92;;
31770;SDS011;18343;50.152;8.182;2023-06-04T16:37:12;5.38;;;2.60;;
31770;SDS011;18343;50.152;8.182;2023-06-04T16:39:58;3.90;;;2.78;;